createdAt,value
2018-09-26T00:00:10.453Z,1047.8162241
2018-09-26T00:00:22.874Z,1047.8162241
2018-09-26T00:00:35.283Z,1047.8162241
2018-09-26T00:00:47.736Z,1047.8162241
2018-09-26T00:01:00.169Z,1047.8162241
2018-09-26T00:01:12.586Z,1047.74849634
2018-09-26T00:01:24.985Z,1047.74849634
2018-09-26T00:01:37.397Z,1047.74849634
2018-09-26T00:01:49.796Z,1047.74849634
2018-09-26T00:02:02.221Z,1047.74849634
2018-09-26T00:02:14.667Z,1047.68076857
2018-09-26T00:02:27.107Z,1047.68076857
2018-09-26T00:02:39.851Z,1047.68076857
2018-09-26T00:02:52.239Z,1047.68076857
2018-09-26T00:03:04.670Z,1047.64690469
2018-09-26T00:03:17.081Z,1047.64690469
2018-09-26T00:03:29.480Z,1047.64690469
2018-09-26T00:03:42.088Z,1047.64690469
2018-09-26T00:03:54.499Z,1047.64690469
2018-09-26T00:04:06.921Z,1047.74849634
2018-09-26T00:04:19.348Z,1047.74849634
2018-09-26T00:04:31.761Z,1047.74849634
2018-09-26T00:04:44.201Z,1047.74849634
2018-09-26T00:04:56.595Z,1047.74849634
2018-09-26T00:05:08.994Z,1047.64690469
2018-09-26T00:05:21.451Z,1047.64690469
2018-09-26T00:05:33.839Z,1047.64690469
2018-09-26T00:05:46.235Z,1047.64690469
2018-09-26T00:05:58.636Z,1047.64690469
2018-09-26T00:06:11.040Z,1047.61304081
2018-09-26T00:06:23.427Z,1047.61304081
2018-09-26T00:06:35.824Z,1047.61304081
2018-09-26T00:06:48.203Z,1047.61304081
2018-09-26T00:07:00.599Z,1047.61304081
2018-09-26T00:07:12.988Z,1047.57917693
2018-09-26T00:07:25.387Z,1047.57917693
2018-09-26T00:07:37.774Z,1047.57917693
2018-09-26T00:07:50.170Z,1047.57917693
2018-09-26T00:08:02.558Z,1047.57917693
2018-09-26T00:08:14.962Z,1047.61304081
2018-09-26T00:08:27.336Z,1047.61304081
2018-09-26T00:08:39.886Z,1047.61304081
2018-09-26T00:08:52.515Z,1047.61304081
2018-09-26T00:09:04.933Z,1047.74849634
2018-09-26T00:09:17.314Z,1047.74849634
2018-09-26T00:09:29.716Z,1047.74849634
2018-09-26T00:09:42.111Z,1047.74849634
2018-09-26T00:09:54.504Z,1047.74849634
2018-09-26T00:10:06.901Z,1047.61304081
2018-09-26T00:10:19.576Z,1047.61304081
2018-09-26T00:10:31.966Z,1047.61304081
2018-09-26T00:10:44.389Z,1047.61304081
2018-09-26T00:10:56.795Z,1047.61304081
2018-09-26T00:11:09.216Z,1047.64690469
2018-09-26T00:11:21.670Z,1047.64690469
2018-09-26T00:11:34.132Z,1047.64690469
2018-09-26T00:11:46.582Z,1047.64690469
2018-09-26T00:11:59.038Z,1047.64690469
2018-09-26T00:12:11.495Z,1047.61304081
2018-09-26T00:12:23.952Z,1047.61304081
2018-09-26T00:12:36.418Z,1047.61304081
2018-09-26T00:12:48.870Z,1047.61304081
2018-09-26T00:13:01.317Z,1047.61304081
2018-09-26T00:13:13.779Z,1047.57917693
2018-09-26T00:13:26.248Z,1047.57917693
2018-09-26T00:13:38.655Z,1047.57917693
2018-09-26T00:13:51.030Z,1047.57917693
2018-09-26T00:14:03.412Z,1047.61304081
2018-09-26T00:14:15.787Z,1047.61304081
2018-09-26T00:14:28.188Z,1047.61304081
2018-09-26T00:14:40.604Z,1047.61304081
2018-09-26T00:14:53.000Z,1047.61304081
2018-09-26T00:15:05.389Z,1047.57917693
2018-09-26T00:15:17.769Z,1047.57917693
2018-09-26T00:15:30.275Z,1047.57917693
2018-09-26T00:15:42.731Z,1047.57917693
2018-09-26T00:15:55.155Z,1047.57917693
2018-09-26T00:16:07.721Z,1047.57917693
2018-09-26T00:16:20.132Z,1047.57917693
2018-09-26T00:16:32.571Z,1047.57917693
2018-09-26T00:16:44.963Z,1047.57917693
2018-09-26T00:16:57.365Z,1047.57917693
2018-09-26T00:17:09.766Z,1047.57917693
2018-09-26T00:17:22.207Z,1047.57917693
2018-09-26T00:17:34.632Z,1047.57917693
2018-09-26T00:17:47.081Z,1047.57917693
2018-09-26T00:17:59.543Z,1047.57917693
2018-09-26T00:18:11.964Z,1047.51144917
2018-09-26T00:18:24.376Z,1047.51144917
2018-09-26T00:18:36.765Z,1047.51144917
2018-09-26T00:18:49.206Z,1047.51144917
2018-09-26T00:19:01.609Z,1047.51144917
2018-09-26T00:19:13.991Z,1047.47758529
2018-09-26T00:19:26.379Z,1047.47758529
2018-09-26T00:19:38.760Z,1047.47758529
2018-09-26T00:19:51.214Z,1047.47758529
2018-09-26T00:20:03.612Z,1047.47758529
2018-09-26T00:20:16.012Z,1047.47758529
2018-09-26T00:20:28.402Z,1047.47758529
2018-09-26T00:20:41.093Z,1047.47758529
2018-09-26T00:20:53.478Z,1047.47758529
2018-09-26T00:21:06.028Z,1047.4437214
2018-09-26T00:21:18.427Z,1047.4437214
2018-09-26T00:21:30.806Z,1047.4437214
2018-09-26T00:21:43.185Z,1047.4437214
2018-09-26T00:21:55.585Z,1047.4437214
2018-09-26T00:22:07.991Z,1047.54531305
2018-09-26T00:22:20.408Z,1047.54531305
2018-09-26T00:22:32.884Z,1047.54531305
2018-09-26T00:22:45.374Z,1047.54531305
2018-09-26T00:22:57.930Z,1047.54531305
2018-09-26T00:23:10.392Z,1047.40985752
2018-09-26T00:23:22.791Z,1047.40985752
2018-09-26T00:23:35.180Z,1047.40985752
2018-09-26T00:23:47.724Z,1047.40985752
2018-09-26T00:24:00.200Z,1047.40985752
2018-09-26T00:24:12.666Z,1047.40985752
2018-09-26T00:24:25.306Z,1047.40985752
2018-09-26T00:24:37.790Z,1047.40985752
2018-09-26T00:24:50.310Z,1047.40985752
2018-09-26T00:25:02.788Z,1047.40985752
2018-09-26T00:25:15.257Z,1047.47758529
2018-09-26T00:25:27.726Z,1047.47758529
2018-09-26T00:25:40.138Z,1047.47758529
2018-09-26T00:25:52.525Z,1047.47758529
2018-09-26T00:26:04.922Z,1047.4437214
2018-09-26T00:26:17.478Z,1047.4437214
2018-09-26T00:26:29.903Z,1047.4437214
2018-09-26T00:26:42.277Z,1047.4437214
2018-09-26T00:26:54.700Z,1047.4437214
2018-09-26T00:27:07.288Z,1047.51144917
2018-09-26T00:27:19.667Z,1047.51144917
2018-09-26T00:27:32.143Z,1047.51144917
2018-09-26T00:27:44.690Z,1047.51144917
2018-09-26T00:27:57.235Z,1047.51144917
2018-09-26T00:28:09.705Z,1047.40985752
2018-09-26T00:28:22.157Z,1047.40985752
2018-09-26T00:28:34.541Z,1047.40985752
2018-09-26T00:28:46.930Z,1047.40985752
2018-09-26T00:28:59.359Z,1047.40985752
2018-09-26T00:29:11.832Z,1047.47758529
2018-09-26T00:29:24.295Z,1047.47758529
2018-09-26T00:29:36.699Z,1047.47758529
2018-09-26T00:29:49.090Z,1047.47758529
2018-09-26T00:30:01.522Z,1047.47758529
2018-09-26T00:30:13.958Z,1047.40985752
2018-09-26T00:30:26.405Z,1047.40985752
2018-09-26T00:30:38.833Z,1047.40985752
2018-09-26T00:30:51.237Z,1047.40985752
2018-09-26T00:31:03.651Z,1047.47758529
2018-09-26T00:31:16.069Z,1047.47758529
2018-09-26T00:31:28.522Z,1047.47758529
2018-09-26T00:31:41.063Z,1047.47758529
2018-09-26T00:31:53.589Z,1047.47758529
2018-09-26T00:32:06.237Z,1047.54531305
2018-09-26T00:32:18.645Z,1047.54531305
2018-09-26T00:32:31.101Z,1047.54531305
2018-09-26T00:32:43.500Z,1047.54531305
2018-09-26T00:32:55.906Z,1047.54531305
2018-09-26T00:33:08.358Z,1047.51144917
2018-09-26T00:33:20.950Z,1047.51144917
2018-09-26T00:33:33.418Z,1047.51144917
2018-09-26T00:33:45.825Z,1047.51144917
2018-09-26T00:33:58.227Z,1047.51144917
2018-09-26T00:34:10.712Z,1047.54531305
2018-09-26T00:34:23.176Z,1047.54531305
2018-09-26T00:34:35.613Z,1047.54531305
2018-09-26T00:34:48.003Z,1047.54531305
2018-09-26T00:35:00.385Z,1047.54531305
2018-09-26T00:35:12.774Z,1047.51144917
2018-09-26T00:35:25.159Z,1047.51144917
2018-09-26T00:35:37.593Z,1047.51144917
2018-09-26T00:35:51.099Z,1047.51144917
2018-09-26T00:36:05.182Z,1047.54531305
2018-09-26T00:36:19.631Z,1047.54531305
2018-09-26T00:36:32.379Z,1047.54531305
2018-09-26T00:36:44.803Z,1047.54531305
2018-09-26T00:36:57.204Z,1047.54531305
2018-09-26T00:37:09.657Z,1047.57917693
2018-09-26T00:37:22.113Z,1047.57917693
2018-09-26T00:37:34.867Z,1047.57917693
2018-09-26T00:37:47.638Z,1047.57917693
2018-09-26T00:38:00.113Z,1047.57917693
2018-09-26T00:38:12.543Z,1047.51144917
2018-09-26T00:38:25.208Z,1047.51144917
2018-09-26T00:38:37.742Z,1047.51144917
2018-09-26T00:38:50.133Z,1047.51144917
2018-09-26T00:39:02.706Z,1047.51144917
2018-09-26T00:39:15.126Z,1047.57917693
2018-09-26T00:39:27.606Z,1047.57917693
2018-09-26T00:39:40.035Z,1047.57917693
2018-09-26T00:39:52.462Z,1047.57917693
2018-09-26T00:40:04.897Z,1047.51144917
2018-09-26T00:40:17.296Z,1047.51144917
2018-09-26T00:40:29.766Z,1047.51144917
2018-09-26T00:40:42.181Z,1047.51144917
2018-09-26T00:40:54.611Z,1047.51144917
2018-09-26T00:41:07.090Z,1047.51144917
2018-09-26T00:41:19.518Z,1047.51144917
2018-09-26T00:41:31.907Z,1047.51144917
2018-09-26T00:41:44.338Z,1047.51144917
2018-09-26T00:41:56.811Z,1047.51144917
2018-09-26T00:42:09.329Z,1047.51144917
2018-09-26T00:42:21.875Z,1047.51144917
2018-09-26T00:42:34.328Z,1047.51144917
2018-09-26T00:42:46.799Z,1047.51144917
2018-09-26T00:42:59.253Z,1047.51144917
2018-09-26T00:43:11.712Z,1047.47758529
2018-09-26T00:43:24.191Z,1047.47758529
2018-09-26T00:43:36.603Z,1047.47758529
2018-09-26T00:43:48.998Z,1047.47758529
2018-09-26T00:44:01.451Z,1047.47758529
2018-09-26T00:44:13.901Z,1047.4437214
2018-09-26T00:44:26.303Z,1047.4437214
2018-09-26T00:44:38.699Z,1047.4437214
2018-09-26T00:44:51.079Z,1047.4437214
2018-09-26T00:45:03.460Z,1047.40985752
2018-09-26T00:45:15.832Z,1047.40985752
2018-09-26T00:45:28.215Z,1047.40985752
2018-09-26T00:45:40.691Z,1047.40985752
2018-09-26T00:45:53.143Z,1047.40985752
2018-09-26T00:46:05.540Z,1047.34212976
2018-09-26T00:46:17.952Z,1047.34212976
2018-09-26T00:46:30.409Z,1047.34212976
2018-09-26T00:46:42.865Z,1047.34212976
2018-09-26T00:46:55.313Z,1047.34212976
2018-09-26T00:47:07.795Z,1047.40985752
2018-09-26T00:47:20.176Z,1047.40985752
2018-09-26T00:47:32.556Z,1047.40985752
2018-09-26T00:47:45.009Z,1047.40985752
2018-09-26T00:47:57.417Z,1047.40985752
2018-09-26T00:48:09.909Z,1047.30826588
2018-09-26T00:48:22.387Z,1047.30826588
2018-09-26T00:48:34.769Z,1047.30826588
2018-09-26T00:48:47.160Z,1047.30826588
2018-09-26T00:48:59.587Z,1047.30826588
2018-09-26T00:49:12.086Z,1047.37599364
2018-09-26T00:49:24.661Z,1047.37599364
2018-09-26T00:49:37.037Z,1047.37599364
2018-09-26T00:49:49.427Z,1047.37599364
2018-09-26T00:50:01.819Z,1047.37599364
2018-09-26T00:50:14.199Z,1047.34212976
2018-09-26T00:50:26.787Z,1047.34212976
2018-09-26T00:50:39.252Z,1047.34212976
2018-09-26T00:50:51.669Z,1047.34212976
2018-09-26T00:51:04.100Z,1047.37599364
2018-09-26T00:51:16.498Z,1047.37599364
2018-09-26T00:51:28.882Z,1047.37599364
2018-09-26T00:51:41.440Z,1047.37599364
2018-09-26T00:51:53.904Z,1047.37599364
2018-09-26T00:52:06.379Z,1047.274402
2018-09-26T00:52:18.824Z,1047.274402
2018-09-26T00:52:31.200Z,1047.274402
2018-09-26T00:52:43.583Z,1047.274402
2018-09-26T00:52:56.039Z,1047.274402
2018-09-26T00:53:08.507Z,1047.34212976
2018-09-26T00:53:20.968Z,1047.34212976
2018-09-26T00:53:33.453Z,1047.34212976
2018-09-26T00:53:45.848Z,1047.34212976
2018-09-26T00:53:58.334Z,1047.34212976
2018-09-26T00:54:10.772Z,1047.40985752
2018-09-26T00:54:23.161Z,1047.40985752
2018-09-26T00:54:35.549Z,1047.40985752
2018-09-26T00:54:47.938Z,1047.40985752
2018-09-26T00:55:00.375Z,1047.40985752
2018-09-26T00:55:12.775Z,1047.30826588
2018-09-26T00:55:25.199Z,1047.30826588
2018-09-26T00:55:37.807Z,1047.30826588
2018-09-26T00:55:50.275Z,1047.30826588
2018-09-26T00:56:02.657Z,1047.30826588
2018-09-26T00:56:15.043Z,1047.24053811
2018-09-26T00:56:27.507Z,1047.24053811
2018-09-26T00:56:39.943Z,1047.24053811
2018-09-26T00:56:52.347Z,1047.24053811
2018-09-26T00:57:04.741Z,1047.20667423
2018-09-26T00:57:17.146Z,1047.20667423
2018-09-26T00:57:29.535Z,1047.20667423
2018-09-26T00:57:41.920Z,1047.20667423
2018-09-26T00:57:54.309Z,1047.20667423
2018-09-26T00:58:06.694Z,1047.17281035
2018-09-26T00:58:19.092Z,1047.17281035
2018-09-26T00:58:31.560Z,1047.17281035
2018-09-26T00:58:44.020Z,1047.17281035
2018-09-26T00:58:56.489Z,1047.17281035
2018-09-26T00:59:08.939Z,1047.10508259
2018-09-26T00:59:21.342Z,1047.10508259
2018-09-26T00:59:33.797Z,1047.10508259
2018-09-26T00:59:46.318Z,1047.10508259
2018-09-26T00:59:58.706Z,1047.10508259
2018-09-26T01:00:11.105Z,1047.13894647
2018-09-26T01:00:23.511Z,1047.13894647
2018-09-26T01:00:35.930Z,1047.13894647
2018-09-26T01:00:48.361Z,1047.13894647
2018-09-26T01:01:00.827Z,1047.13894647
2018-09-26T01:01:13.250Z,1047.13894647
2018-09-26T01:01:25.673Z,1047.13894647
2018-09-26T01:01:38.081Z,1047.13894647
2018-09-26T01:01:50.498Z,1047.13894647
2018-09-26T01:02:02.891Z,1047.13894647
2018-09-26T01:02:15.300Z,1047.13894647
2018-09-26T01:02:27.736Z,1047.13894647
2018-09-26T01:02:40.131Z,1047.13894647
2018-09-26T01:02:52.516Z,1047.13894647
2018-09-26T01:03:04.937Z,1047.17281035
2018-09-26T01:03:17.345Z,1047.17281035
2018-09-26T01:03:29.755Z,1047.17281035
2018-09-26T01:03:42.236Z,1047.17281035
2018-09-26T01:03:54.655Z,1047.17281035
2018-09-26T01:04:07.111Z,1047.20667423
2018-09-26T01:04:19.524Z,1047.20667423
2018-09-26T01:04:31.927Z,1047.20667423
2018-09-26T01:04:44.318Z,1047.20667423
2018-09-26T01:04:56.707Z,1047.20667423
2018-09-26T01:05:09.150Z,1047.20667423
2018-09-26T01:05:21.562Z,1047.20667423
2018-09-26T01:05:33.968Z,1047.20667423
2018-09-26T01:05:46.389Z,1047.20667423
2018-09-26T01:05:58.801Z,1047.20667423
2018-09-26T01:06:11.221Z,1047.13894647
2018-09-26T01:06:23.634Z,1047.13894647
2018-09-26T01:06:36.066Z,1047.13894647
2018-09-26T01:06:48.496Z,1047.13894647
2018-09-26T01:07:00.929Z,1047.13894647
2018-09-26T01:07:13.327Z,1047.10508259
2018-09-26T01:07:25.720Z,1047.10508259
2018-09-26T01:07:38.110Z,1047.10508259
2018-09-26T01:07:50.511Z,1047.10508259
2018-09-26T01:08:02.915Z,1047.10508259
2018-09-26T01:08:15.314Z,1047.13894647
2018-09-26T01:08:27.717Z,1047.13894647
2018-09-26T01:08:40.230Z,1047.13894647
2018-09-26T01:08:52.884Z,1047.13894647
2018-09-26T01:09:05.277Z,1047.13894647
2018-09-26T01:09:17.704Z,1047.13894647
2018-09-26T01:09:30.137Z,1047.13894647
2018-09-26T01:09:42.554Z,1047.13894647
2018-09-26T01:09:54.949Z,1047.13894647
2018-09-26T01:10:07.339Z,1047.07121871
2018-09-26T01:10:20.226Z,1047.07121871
2018-09-26T01:10:32.613Z,1047.07121871
2018-09-26T01:10:45.018Z,1047.07121871
2018-09-26T01:10:57.432Z,1047.07121871
2018-09-26T01:11:09.844Z,1047.07121871
2018-09-26T01:11:22.328Z,1047.07121871
2018-09-26T01:11:34.751Z,1047.07121871
2018-09-26T01:11:47.156Z,1047.07121871
2018-09-26T01:11:59.553Z,1047.07121871
2018-09-26T01:12:11.971Z,1047.00349094
2018-09-26T01:12:24.358Z,1047.00349094
2018-09-26T01:12:36.751Z,1047.00349094
2018-09-26T01:12:49.137Z,1047.00349094
2018-09-26T01:13:01.547Z,1047.00349094
2018-09-26T01:13:13.951Z,1046.93576318
2018-09-26T01:13:26.363Z,1046.93576318
2018-09-26T01:13:38.766Z,1046.93576318
2018-09-26T01:13:51.173Z,1046.93576318
2018-09-26T01:14:03.726Z,1046.96962706
2018-09-26T01:14:16.129Z,1046.96962706
2018-09-26T01:14:28.525Z,1046.96962706
2018-09-26T01:14:40.924Z,1046.96962706
2018-09-26T01:14:53.343Z,1046.96962706
2018-09-26T01:15:05.776Z,1046.96962706
2018-09-26T01:15:18.176Z,1046.96962706
2018-09-26T01:15:30.754Z,1046.96962706
2018-09-26T01:15:43.128Z,1046.96962706
2018-09-26T01:15:55.533Z,1046.96962706
2018-09-26T01:16:07.946Z,1046.86803542
2018-09-26T01:16:20.343Z,1046.86803542
2018-09-26T01:16:32.723Z,1046.86803542
2018-09-26T01:16:45.110Z,1046.86803542
2018-09-26T01:16:57.519Z,1046.86803542
2018-09-26T01:17:09.937Z,1046.96962706
2018-09-26T01:17:22.361Z,1046.96962706
2018-09-26T01:17:34.759Z,1046.96962706
2018-09-26T01:17:47.163Z,1046.96962706
2018-09-26T01:17:59.709Z,1046.96962706
2018-09-26T01:18:12.114Z,1046.93576318
2018-09-26T01:18:24.533Z,1046.93576318
2018-09-26T01:18:36.946Z,1046.93576318
2018-09-26T01:18:49.353Z,1046.93576318
2018-09-26T01:19:01.752Z,1046.93576318
2018-09-26T01:19:14.150Z,1047.00349094
2018-09-26T01:19:26.545Z,1047.00349094
2018-09-26T01:19:38.948Z,1047.00349094
2018-09-26T01:19:51.368Z,1047.00349094
2018-09-26T01:20:03.784Z,1046.86803542
2018-09-26T01:20:16.180Z,1046.86803542
2018-09-26T01:20:28.611Z,1046.86803542
2018-09-26T01:20:41.124Z,1046.86803542
2018-09-26T01:20:53.533Z,1046.86803542
2018-09-26T01:21:06.063Z,1046.86803542
2018-09-26T01:21:18.493Z,1046.86803542
2018-09-26T01:21:30.881Z,1046.86803542
2018-09-26T01:21:43.271Z,1046.86803542
2018-09-26T01:21:55.674Z,1046.86803542
2018-09-26T01:22:08.082Z,1046.83417153
2018-09-26T01:22:20.476Z,1046.83417153
2018-09-26T01:22:32.870Z,1046.83417153
2018-09-26T01:22:45.415Z,1046.83417153
2018-09-26T01:22:57.792Z,1046.83417153
2018-09-26T01:23:10.211Z,1046.86803542
2018-09-26T01:23:22.631Z,1046.86803542
2018-09-26T01:23:35.034Z,1046.86803542
2018-09-26T01:23:47.703Z,1046.86803542
2018-09-26T01:24:00.092Z,1046.86803542
2018-09-26T01:24:12.492Z,1046.73257989
2018-09-26T01:24:25.032Z,1046.73257989
2018-09-26T01:24:37.470Z,1046.73257989
2018-09-26T01:24:49.856Z,1046.73257989
2018-09-26T01:25:02.255Z,1046.73257989
2018-09-26T01:25:14.656Z,1046.76644377
2018-09-26T01:25:27.074Z,1046.76644377
2018-09-26T01:25:39.466Z,1046.76644377
2018-09-26T01:25:51.874Z,1046.76644377
2018-09-26T01:26:04.264Z,1046.73257989
2018-09-26T01:26:16.660Z,1046.73257989
2018-09-26T01:26:29.057Z,1046.73257989
2018-09-26T01:26:41.441Z,1046.73257989
2018-09-26T01:26:53.846Z,1046.73257989
2018-09-26T01:27:06.388Z,1046.76644377
2018-09-26T01:27:18.837Z,1046.76644377
2018-09-26T01:27:31.243Z,1046.76644377
2018-09-26T01:27:43.879Z,1046.76644377
2018-09-26T01:27:56.329Z,1046.76644377
2018-09-26T01:28:08.723Z,1046.73257989
2018-09-26T01:28:21.111Z,1046.73257989
2018-09-26T01:28:33.719Z,1046.73257989
2018-09-26T01:28:46.214Z,1046.73257989
2018-09-26T01:28:58.627Z,1046.73257989
2018-09-26T01:29:11.022Z,1046.73257989
2018-09-26T01:29:23.414Z,1046.73257989
2018-09-26T01:29:35.801Z,1046.73257989
2018-09-26T01:29:48.251Z,1046.73257989
2018-09-26T01:30:00.657Z,1046.73257989
2018-09-26T01:30:13.061Z,1046.66485213
2018-09-26T01:30:25.468Z,1046.66485213
2018-09-26T01:30:37.860Z,1046.66485213
2018-09-26T01:30:50.279Z,1046.66485213
2018-09-26T01:31:02.687Z,1046.66485213
2018-09-26T01:31:15.078Z,1046.66485213
2018-09-26T01:31:27.455Z,1046.66485213
2018-09-26T01:31:39.851Z,1046.66485213
2018-09-26T01:31:52.240Z,1046.66485213
2018-09-26T01:32:04.623Z,1046.59712436
2018-09-26T01:32:17.044Z,1046.59712436
2018-09-26T01:32:29.443Z,1046.59712436
2018-09-26T01:32:41.845Z,1046.59712436
2018-09-26T01:32:54.234Z,1046.59712436
2018-09-26T01:33:06.642Z,1046.59712436
2018-09-26T01:33:19.213Z,1046.59712436
2018-09-26T01:33:31.636Z,1046.59712436
2018-09-26T01:33:44.101Z,1046.59712436
2018-09-26T01:33:56.502Z,1046.59712436
2018-09-26T01:34:08.899Z,1046.5293966
2018-09-26T01:34:21.325Z,1046.5293966
2018-09-26T01:34:33.724Z,1046.5293966
2018-09-26T01:34:46.132Z,1046.5293966
2018-09-26T01:34:58.513Z,1046.5293966
2018-09-26T01:35:10.911Z,1046.59712436
2018-09-26T01:35:23.293Z,1046.59712436
2018-09-26T01:35:35.688Z,1046.59712436
2018-09-26T01:35:48.085Z,1046.59712436
2018-09-26T01:36:00.484Z,1046.59712436
2018-09-26T01:36:12.880Z,1046.56326048
2018-09-26T01:36:25.322Z,1046.56326048
2018-09-26T01:36:37.693Z,1046.56326048
2018-09-26T01:36:50.082Z,1046.56326048
2018-09-26T01:37:02.491Z,1046.56326048
2018-09-26T01:37:14.882Z,1046.59712436
2018-09-26T01:37:27.332Z,1046.59712436
2018-09-26T01:37:40.060Z,1046.59712436
2018-09-26T01:37:52.459Z,1046.59712436
2018-09-26T01:38:04.995Z,1046.5293966
2018-09-26T01:38:17.621Z,1046.5293966
2018-09-26T01:38:30.023Z,1046.5293966
2018-09-26T01:38:42.675Z,1046.5293966
2018-09-26T01:38:55.109Z,1046.5293966
2018-09-26T01:39:07.613Z,1046.56326048
2018-09-26T01:39:20.008Z,1046.56326048
2018-09-26T01:39:32.405Z,1046.56326048
2018-09-26T01:39:44.803Z,1046.56326048
2018-09-26T01:39:57.193Z,1046.56326048
2018-09-26T01:40:09.583Z,1046.42780496
2018-09-26T01:40:21.965Z,1046.42780496
2018-09-26T01:40:34.368Z,1046.42780496
2018-09-26T01:40:46.757Z,1046.42780496
2018-09-26T01:40:59.160Z,1046.42780496
2018-09-26T01:41:11.565Z,1046.59712436
2018-09-26T01:41:24.423Z,1046.59712436
2018-09-26T01:41:38.067Z,1046.59712436
2018-09-26T01:41:50.495Z,1046.59712436
2018-09-26T01:42:02.892Z,1046.59712436
2018-09-26T01:42:15.301Z,1046.39394107
2018-09-26T01:42:27.706Z,1046.39394107
2018-09-26T01:42:40.150Z,1046.39394107
2018-09-26T01:42:52.549Z,1046.39394107
2018-09-26T01:43:04.952Z,1046.5293966
2018-09-26T01:43:17.356Z,1046.5293966
2018-09-26T01:43:29.747Z,1046.5293966
2018-09-26T01:43:42.143Z,1046.5293966
2018-09-26T01:43:54.521Z,1046.5293966
2018-09-26T01:44:06.903Z,1046.5293966
2018-09-26T01:44:19.319Z,1046.5293966
2018-09-26T01:44:31.697Z,1046.5293966
2018-09-26T01:44:44.101Z,1046.5293966
2018-09-26T01:44:56.502Z,1046.5293966
2018-09-26T01:45:09.125Z,1046.56326048
2018-09-26T01:45:21.520Z,1046.56326048
2018-09-26T01:45:33.919Z,1046.56326048
2018-09-26T01:45:46.335Z,1046.56326048
2018-09-26T01:45:58.749Z,1046.56326048
2018-09-26T01:46:11.153Z,1046.59712436
2018-09-26T01:46:23.552Z,1046.59712436
2018-09-26T01:46:36.092Z,1046.59712436
2018-09-26T01:46:48.474Z,1046.59712436
2018-09-26T01:47:00.880Z,1046.59712436
2018-09-26T01:47:13.255Z,1046.59712436
2018-09-26T01:47:25.656Z,1046.59712436
2018-09-26T01:47:38.046Z,1046.59712436
2018-09-26T01:47:50.443Z,1046.59712436
2018-09-26T01:48:02.823Z,1046.59712436
2018-09-26T01:48:15.218Z,1046.56326048
2018-09-26T01:48:27.623Z,1046.56326048
2018-09-26T01:48:40.069Z,1046.56326048
2018-09-26T01:48:52.454Z,1046.56326048
2018-09-26T01:49:04.853Z,1046.49553272
2018-09-26T01:49:17.255Z,1046.49553272
2018-09-26T01:49:29.827Z,1046.49553272
2018-09-26T01:49:42.235Z,1046.49553272
2018-09-26T01:49:54.643Z,1046.49553272
2018-09-26T01:50:07.051Z,1046.49553272
2018-09-26T01:50:19.557Z,1046.49553272
2018-09-26T01:50:32.120Z,1046.49553272
2018-09-26T01:50:44.495Z,1046.49553272
2018-09-26T01:50:56.876Z,1046.49553272
2018-09-26T01:51:09.271Z,1046.56326048
2018-09-26T01:51:21.663Z,1046.56326048
2018-09-26T01:51:34.059Z,1046.56326048
2018-09-26T01:51:46.576Z,1046.56326048
2018-09-26T01:51:58.971Z,1046.56326048
2018-09-26T01:52:11.390Z,1046.46166884
2018-09-26T01:52:23.833Z,1046.46166884
2018-09-26T01:52:36.228Z,1046.46166884
2018-09-26T01:52:48.659Z,1046.46166884
2018-09-26T01:53:01.070Z,1046.46166884
2018-09-26T01:53:13.474Z,1046.63098825
2018-09-26T01:53:25.875Z,1046.63098825
2018-09-26T01:53:38.263Z,1046.63098825
2018-09-26T01:53:50.746Z,1046.63098825
2018-09-26T01:54:03.288Z,1046.63098825
2018-09-26T01:54:15.691Z,1046.63098825
2018-09-26T01:54:28.092Z,1046.63098825
2018-09-26T01:54:40.492Z,1046.63098825
2018-09-26T01:54:52.886Z,1046.63098825
2018-09-26T01:55:05.305Z,1046.63098825
2018-09-26T01:55:17.712Z,1046.63098825
2018-09-26T01:55:30.117Z,1046.63098825
2018-09-26T01:55:42.514Z,1046.63098825
2018-09-26T01:55:54.920Z,1046.63098825
2018-09-26T01:56:07.306Z,1046.63098825
2018-09-26T01:56:20.115Z,1046.63098825
2018-09-26T01:56:32.528Z,1046.63098825
2018-09-26T01:56:44.925Z,1046.63098825
2018-09-26T01:56:57.338Z,1046.63098825
2018-09-26T01:57:09.748Z,1046.63098825
2018-09-26T01:57:22.186Z,1046.63098825
2018-09-26T01:57:34.629Z,1046.63098825
2018-09-26T01:57:47.029Z,1046.63098825
2018-09-26T01:57:59.462Z,1046.63098825
2018-09-26T01:58:11.915Z,1046.63098825
2018-09-26T01:58:24.330Z,1046.63098825
2018-09-26T01:58:36.742Z,1046.63098825
2018-09-26T01:58:49.179Z,1046.63098825
2018-09-26T01:59:01.579Z,1046.63098825
2018-09-26T01:59:13.990Z,1046.56326048
2018-09-26T01:59:26.429Z,1046.56326048
2018-09-26T01:59:38.834Z,1046.56326048
2018-09-26T01:59:51.252Z,1046.56326048
2018-09-26T02:00:03.678Z,1046.56326048
2018-09-26T02:00:16.098Z,1046.63098825
2018-09-26T02:00:28.520Z,1046.63098825
2018-09-26T02:00:40.944Z,1046.63098825
2018-09-26T02:00:53.350Z,1046.63098825
2018-09-26T02:01:05.774Z,1046.5293966
2018-09-26T02:01:18.412Z,1046.5293966
2018-09-26T02:01:30.831Z,1046.5293966
2018-09-26T02:01:43.250Z,1046.5293966
2018-09-26T02:01:55.649Z,1046.5293966
2018-09-26T02:02:08.088Z,1046.59712436
2018-09-26T02:02:20.477Z,1046.59712436
2018-09-26T02:02:32.872Z,1046.59712436
2018-09-26T02:02:45.277Z,1046.59712436
2018-09-26T02:02:57.697Z,1046.59712436
2018-09-26T02:03:10.089Z,1046.63098825
2018-09-26T02:03:22.481Z,1046.63098825
2018-09-26T02:03:34.915Z,1046.63098825
2018-09-26T02:03:47.539Z,1046.63098825
2018-09-26T02:04:00.024Z,1046.63098825
2018-09-26T02:04:12.434Z,1046.5293966
2018-09-26T02:04:24.871Z,1046.5293966
2018-09-26T02:04:37.289Z,1046.5293966
2018-09-26T02:04:49.681Z,1046.5293966
2018-09-26T02:05:02.087Z,1046.5293966
2018-09-26T02:05:14.506Z,1046.56326048
2018-09-26T02:05:26.902Z,1046.56326048
2018-09-26T02:05:39.318Z,1046.56326048
2018-09-26T02:05:51.709Z,1046.56326048
2018-09-26T02:06:04.102Z,1046.56326048
2018-09-26T02:06:16.506Z,1046.56326048
2018-09-26T02:06:28.925Z,1046.56326048
2018-09-26T02:06:41.316Z,1046.56326048
2018-09-26T02:06:53.700Z,1046.56326048
2018-09-26T02:07:06.101Z,1046.63098825
2018-09-26T02:07:18.502Z,1046.63098825
2018-09-26T02:07:30.899Z,1046.63098825
2018-09-26T02:07:43.315Z,1046.63098825